sensor_id;sensor_type;location;lat;lon;timestamp;P1;durP1;ratioP1;P2;durP2;ratioP2
19205;SDS011;59358;52.134;5.596;2022-09-09T00:00:17;3.60;;;3.30;;
19205;SDS011;59358;52.134;5.596;2022-09-09T00:02:47;6.00;;;2.55;;
19205;SDS011;59358;52.134;5.596;2022-09-09T00:05:23;4.90;;;2.53;;
19205;SDS011;59358;52.134;5.596;2022-09-09T00:07:58;3.67;;;2.40;;
19205;SDS011;59358;52.134;5.596;2022-09-09T00:10:29;3.05;;;2.40;;
19205;SDS011;59358;52.134;5.596;2022-09-09T00:13:02;4.95;;;2.80;;
19205;SDS011;59358;52.134;5.596;2022-09-09T00:15:41;4.25;;;2.60;;
19205;SDS011;59358;52.134;5.596;2022-09-09T00:18:28;3.45;;;2.85;;
19205;SDS011;59358;52.134;5.596;2022-09-09T00:21:05;4.70;;;3.05;;
19205;SDS011;59358;52.134;5.596;2022-09-09T00:23:34;5.63;;;3.38;;
19205;SDS011;59358;52.134;5.596;2022-09-09T00:26:05;5.60;;;3.00;;
19205;SDS011;59358;52.134;5.596;2022-09-09T00:28:44;7.22;;;3.30;;
19205;SDS011;59358;52.134;5.596;2022-09-09T00:31:18;4.32;;;3.47;;
19205;SDS011;59358;52.134;5.596;2022-09-09T00:33:55;6.15;;;4.00;;
19205;SDS011;59358;52.134;5.596;2022-09-09T00:36:29;4.38;;;3.92;;
19205;SDS011;59358;52.134;5.596;2022-09-09T00:38:59;6.90;;;4.45;;
19205;SDS011;59358;52.134;5.596;2022-09-09T00:41:30;8.50;;;5.30;;
19205;SDS011;59358;52.134;5.596;2022-09-09T00:44:12;7.78;;;5.10;;
19205;SDS011;59358;52.134;5.596;2022-09-09T00:47:04;9.80;;;5.40;;
19205;SDS011;59358;52.134;5.596;2022-09-09T00:49:39;9.73;;;5.82;;
19205;SDS011;59358;52.134;5.596;2022-09-09T00:52:19;7.53;;;6.25;;
19205;SDS011;59358;52.134;5.596;2022-09-09T00:54:54;7.00;;;6.20;;
19205;SDS011;59358;52.134;5.596;2022-09-09T00:57:29;8.35;;;6.57;;
19205;SDS011;59358;52.134;5.596;2022-09-09T01:00:00;12.90;;;7.90;;
19205;SDS011;59358;52.134;5.596;2022-09-09T01:02:45;9.35;;;7.53;;
19205;SDS011;59358;52.134;5.596;2022-09-09T01:05:20;11.70;;;7.47;;
19205;SDS011;59358;52.134;5.596;2022-09-09T01:07:52;8.30;;;6.35;;
19205;SDS011;59358;52.134;5.596;2022-09-09T01:10:21;8.32;;;7.13;;
19205;SDS011;59358;52.134;5.596;2022-09-09T01:12:56;12.07;;;7.97;;
19205;SDS011;59358;52.134;5.596;2022-09-09T01:15:29;8.38;;;7.00;;
19205;SDS011;59358;52.134;5.596;2022-09-09T01:18:00;9.88;;;7.03;;
19205;SDS011;59358;52.134;5.596;2022-09-09T01:20:31;11.40;;;8.32;;
19205;SDS011;59358;52.134;5.596;2022-09-09T01:23:19;9.07;;;6.75;;
19205;SDS011;59358;52.134;5.596;2022-09-09T01:26:14;10.77;;;8.13;;
19205;SDS011;59358;52.134;5.596;2022-09-09T01:28:46;14.75;;;8.18;;
19205;SDS011;59358;52.134;5.596;2022-09-09T01:31:17;13.52;;;8.32;;
19205;SDS011;59358;52.134;5.596;2022-09-09T01:33:46;11.32;;;8.15;;
19205;SDS011;59358;52.134;5.596;2022-09-09T01:36:14;11.68;;;8.00;;
19205;SDS011;59358;52.134;5.596;2022-09-09T01:38:47;10.98;;;8.05;;
19205;SDS011;59358;52.134;5.596;2022-09-09T01:41:15;11.68;;;8.20;;
19205;SDS011;59358;52.134;5.596;2022-09-09T01:43:42;13.18;;;8.18;;
19205;SDS011;59358;52.134;5.596;2022-09-09T01:46:09;12.23;;;8.25;;
19205;SDS011;59358;52.134;5.596;2022-09-09T01:48:37;11.90;;;8.30;;
19205;SDS011;59358;52.134;5.596;2022-09-09T01:51:07;12.93;;;8.40;;
19205;SDS011;59358;52.134;5.596;2022-09-09T01:53:35;13.65;;;9.60;;
19205;SDS011;59358;52.134;5.596;2022-09-09T01:56:05;14.90;;;9.45;;
19205;SDS011;59358;52.134;5.596;2022-09-09T01:58:46;12.68;;;9.38;;
19205;SDS011;59358;52.134;5.596;2022-09-09T02:01:41;14.27;;;9.18;;
19205;SDS011;59358;52.134;5.596;2022-09-09T02:04:17;13.65;;;9.13;;
19205;SDS011;59358;52.134;5.596;2022-09-09T02:06:53;19.73;;;9.52;;
19205;SDS011;59358;52.134;5.596;2022-09-09T02:09:23;16.15;;;9.27;;
19205;SDS011;59358;52.134;5.596;2022-09-09T02:11:53;11.07;;;9.00;;
19205;SDS011;59358;52.134;5.596;2022-09-09T02:14:30;14.45;;;9.48;;
19205;SDS011;59358;52.134;5.596;2022-09-09T02:17:03;17.40;;;11.18;;
19205;SDS011;59358;52.134;5.596;2022-09-09T02:19:35;16.13;;;10.45;;
19205;SDS011;59358;52.134;5.596;2022-09-09T02:22:05;19.55;;;10.70;;
19205;SDS011;59358;52.134;5.596;2022-09-09T02:24:32;15.85;;;11.18;;
19205;SDS011;59358;52.134;5.596;2022-09-09T02:27:01;17.50;;;11.52;;
19205;SDS011;59358;52.134;5.596;2022-09-09T02:29:35;18.45;;;12.02;;
19205;SDS011;59358;52.134;5.596;2022-09-09T02:32:06;16.17;;;11.93;;
19205;SDS011;59358;52.134;5.596;2022-09-09T02:34:37;18.15;;;12.32;;
19205;SDS011;59358;52.134;5.596;2022-09-09T02:37:08;17.75;;;11.98;;
19205;SDS011;59358;52.134;5.596;2022-09-09T02:39:37;20.60;;;12.15;;
19205;SDS011;59358;52.134;5.596;2022-09-09T02:42:04;17.65;;;12.07;;
19205;SDS011;59358;52.134;5.596;2022-09-09T02:44:32;17.50;;;12.07;;
19205;SDS011;59358;52.134;5.596;2022-09-09T02:47:05;18.05;;;12.30;;
19205;SDS011;59358;52.134;5.596;2022-09-09T02:49:40;19.08;;;12.48;;
19205;SDS011;59358;52.134;5.596;2022-09-09T02:52:15;17.63;;;11.18;;
19205;SDS011;59358;52.134;5.596;2022-09-09T02:54:45;19.35;;;11.00;;
19205;SDS011;59358;52.134;5.596;2022-09-09T02:57:16;18.58;;;13.15;;
19205;SDS011;59358;52.134;5.596;2022-09-09T02:59:46;15.82;;;11.30;;
19205;SDS011;59358;52.134;5.596;2022-09-09T03:02:15;18.00;;;11.38;;
19205;SDS011;59358;52.134;5.596;2022-09-09T03:04:43;17.40;;;11.80;;
19205;SDS011;59358;52.134;5.596;2022-09-09T03:07:15;21.55;;;11.65;;
19205;SDS011;59358;52.134;5.596;2022-09-09T03:09:42;16.30;;;11.70;;
19205;SDS011;59358;52.134;5.596;2022-09-09T03:12:10;18.35;;;11.35;;
19205;SDS011;59358;52.134;5.596;2022-09-09T03:14:37;18.85;;;11.02;;
19205;SDS011;59358;52.134;5.596;2022-09-09T03:17:04;18.67;;;12.13;;
19205;SDS011;59358;52.134;5.596;2022-09-09T03:19:33;16.75;;;11.77;;
19205;SDS011;59358;52.134;5.596;2022-09-09T03:22:01;16.55;;;11.88;;
19205;SDS011;59358;52.134;5.596;2022-09-09T03:24:29;18.95;;;12.45;;
19205;SDS011;59358;52.134;5.596;2022-09-09T03:26:56;20.15;;;12.77;;
19205;SDS011;59358;52.134;5.596;2022-09-09T03:29:22;18.95;;;11.90;;
19205;SDS011;59358;52.134;5.596;2022-09-09T03:31:49;27.25;;;12.73;;
19205;SDS011;59358;52.134;5.596;2022-09-09T03:34:16;18.75;;;11.57;;
19205;SDS011;59358;52.134;5.596;2022-09-09T03:36:44;19.45;;;12.35;;
19205;SDS011;59358;52.134;5.596;2022-09-09T03:39:13;20.58;;;12.75;;
19205;SDS011;59358;52.134;5.596;2022-09-09T03:41:40;23.15;;;12.45;;
19205;SDS011;59358;52.134;5.596;2022-09-09T03:44:07;20.88;;;13.18;;
19205;SDS011;59358;52.134;5.596;2022-09-09T03:46:34;20.33;;;12.75;;
19205;SDS011;59358;52.134;5.596;2022-09-09T03:49:01;19.02;;;13.07;;
19205;SDS011;59358;52.134;5.596;2022-09-09T03:51:28;22.02;;;13.93;;
19205;SDS011;59358;52.134;5.596;2022-09-09T03:53:56;22.45;;;13.75;;
19205;SDS011;59358;52.134;5.596;2022-09-09T03:56:23;24.13;;;13.52;;
19205;SDS011;59358;52.134;5.596;2022-09-09T03:58:50;20.25;;;13.75;;
19205;SDS011;59358;52.134;5.596;2022-09-09T04:01:18;17.75;;;13.65;;
19205;SDS011;59358;52.134;5.596;2022-09-09T04:03:44;20.30;;;13.35;;
19205;SDS011;59358;52.134;5.596;2022-09-09T04:06:11;21.65;;;13.60;;
19205;SDS011;59358;52.134;5.596;2022-09-09T04:08:40;27.13;;;14.18;;
19205;SDS011;59358;52.134;5.596;2022-09-09T04:11:08;27.15;;;13.30;;
19205;SDS011;59358;52.134;5.596;2022-09-09T04:13:36;17.40;;;11.88;;
19205;SDS011;59358;52.134;5.596;2022-09-09T04:16:04;18.80;;;12.77;;
19205;SDS011;59358;52.134;5.596;2022-09-09T04:18:31;20.90;;;13.15;;
19205;SDS011;59358;52.134;5.596;2022-09-09T04:20:59;17.65;;;12.55;;
19205;SDS011;59358;52.134;5.596;2022-09-09T04:23:26;20.92;;;11.85;;
19205;SDS011;59358;52.134;5.596;2022-09-09T04:25:55;18.85;;;12.90;;
19205;SDS011;59358;52.134;5.596;2022-09-09T04:28:25;21.27;;;13.82;;
19205;SDS011;59358;52.134;5.596;2022-09-09T04:30:53;17.23;;;12.43;;
19205;SDS011;59358;52.134;5.596;2022-09-09T04:33:23;20.15;;;12.68;;
19205;SDS011;59358;52.134;5.596;2022-09-09T04:35:51;15.40;;;11.75;;
19205;SDS011;59358;52.134;5.596;2022-09-09T04:38:20;16.90;;;12.23;;
19205;SDS011;59358;52.134;5.596;2022-09-09T04:40:47;18.75;;;12.80;;
19205;SDS011;59358;52.134;5.596;2022-09-09T04:43:16;24.27;;;12.20;;
19205;SDS011;59358;52.134;5.596;2022-09-09T04:45:46;19.40;;;12.48;;
19205;SDS011;59358;52.134;5.596;2022-09-09T04:48:14;20.90;;;12.45;;
19205;SDS011;59358;52.134;5.596;2022-09-09T04:50:41;17.77;;;12.90;;
19205;SDS011;59358;52.134;5.596;2022-09-09T04:53:08;17.52;;;11.77;;
19205;SDS011;59358;52.134;5.596;2022-09-09T04:55:35;21.30;;;11.75;;
19205;SDS011;59358;52.134;5.596;2022-09-09T04:58:03;20.20;;;12.68;;
19205;SDS011;59358;52.134;5.596;2022-09-09T05:00:30;20.63;;;11.98;;
19205;SDS011;59358;52.134;5.596;2022-09-09T05:03:01;16.48;;;12.05;;
19205;SDS011;59358;52.134;5.596;2022-09-09T05:05:29;21.40;;;10.90;;
19205;SDS011;59358;52.134;5.596;2022-09-09T05:08:00;17.00;;;9.95;;
19205;SDS011;59358;52.134;5.596;2022-09-09T05:10:27;14.63;;;10.57;;
19205;SDS011;59358;52.134;5.596;2022-09-09T05:12:54;15.85;;;10.13;;
19205;SDS011;59358;52.134;5.596;2022-09-09T05:15:21;17.60;;;10.63;;
19205;SDS011;59358;52.134;5.596;2022-09-09T05:17:48;16.98;;;10.00;;
19205;SDS011;59358;52.134;5.596;2022-09-09T05:20:16;14.75;;;10.18;;
19205;SDS011;59358;52.134;5.596;2022-09-09T05:22:43;14.38;;;10.43;;
19205;SDS011;59358;52.134;5.596;2022-09-09T05:25:10;16.23;;;10.73;;
19205;SDS011;59358;52.134;5.596;2022-09-09T05:27:37;14.55;;;10.20;;
19205;SDS011;59358;52.134;5.596;2022-09-09T05:30:04;17.65;;;10.60;;
19205;SDS011;59358;52.134;5.596;2022-09-09T05:32:31;20.92;;;10.25;;
19205;SDS011;59358;52.134;5.596;2022-09-09T05:34:59;16.60;;;10.13;;
19205;SDS011;59358;52.134;5.596;2022-09-09T05:37:27;15.13;;;10.73;;
19205;SDS011;59358;52.134;5.596;2022-09-09T05:39:55;20.65;;;10.75;;
19205;SDS011;59358;52.134;5.596;2022-09-09T05:42:22;18.05;;;11.13;;
19205;SDS011;59358;52.134;5.596;2022-09-09T05:44:49;16.15;;;9.88;;
19205;SDS011;59358;52.134;5.596;2022-09-09T05:47:19;17.92;;;9.65;;
19205;SDS011;59358;52.134;5.596;2022-09-09T05:49:46;25.40;;;10.70;;
19205;SDS011;59358;52.134;5.596;2022-09-09T05:52:13;11.75;;;8.73;;
19205;SDS011;59358;52.134;5.596;2022-09-09T05:54:41;19.38;;;9.35;;
19205;SDS011;59358;52.134;5.596;2022-09-09T05:57:08;16.05;;;9.45;;
19205;SDS011;59358;52.134;5.596;2022-09-09T05:59:35;19.00;;;8.27;;
19205;SDS011;59358;52.134;5.596;2022-09-09T06:02:03;19.30;;;9.60;;
19205;SDS011;59358;52.134;5.596;2022-09-09T06:04:30;20.95;;;10.38;;
19205;SDS011;59358;52.134;5.596;2022-09-09T06:06:57;14.93;;;9.13;;
19205;SDS011;59358;52.134;5.596;2022-09-09T06:09:24;22.38;;;9.02;;
19205;SDS011;59358;52.134;5.596;2022-09-09T06:11:52;14.27;;;8.27;;
19205;SDS011;59358;52.134;5.596;2022-09-09T06:14:19;13.65;;;8.27;;
19205;SDS011;59358;52.134;5.596;2022-09-09T06:16:46;16.05;;;8.50;;
19205;SDS011;59358;52.134;5.596;2022-09-09T06:19:13;16.90;;;7.90;;
19205;SDS011;59358;52.134;5.596;2022-09-09T06:21:40;13.52;;;7.45;;
19205;SDS011;59358;52.134;5.596;2022-09-09T06:24:07;14.88;;;7.80;;
19205;SDS011;59358;52.134;5.596;2022-09-09T06:26:34;19.45;;;7.53;;
19205;SDS011;59358;52.134;5.596;2022-09-09T06:29:07;18.23;;;7.90;;
19205;SDS011;59358;52.134;5.596;2022-09-09T06:31:34;13.65;;;6.90;;
19205;SDS011;59358;52.134;5.596;2022-09-09T06:34:03;15.00;;;7.32;;
19205;SDS011;59358;52.134;5.596;2022-09-09T06:36:32;14.75;;;6.55;;
19205;SDS011;59358;52.134;5.596;2022-09-09T06:39:00;12.57;;;6.90;;
19205;SDS011;59358;52.134;5.596;2022-09-09T06:41:28;11.75;;;6.38;;
19205;SDS011;59358;52.134;5.596;2022-09-09T06:43:56;11.93;;;6.30;;
19205;SDS011;59358;52.134;5.596;2022-09-09T06:46:25;17.10;;;6.70;;
19205;SDS011;59358;52.134;5.596;2022-09-09T06:48:53;10.82;;;6.25;;
19205;SDS011;59358;52.134;5.596;2022-09-09T06:51:22;13.18;;;5.97;;
19205;SDS011;59358;52.134;5.596;2022-09-09T06:53:51;12.77;;;6.15;;
19205;SDS011;59358;52.134;5.596;2022-09-09T06:56:20;13.38;;;5.75;;
19205;SDS011;59358;52.134;5.596;2022-09-09T06:58:48;19.55;;;6.38;;
19205;SDS011;59358;52.134;5.596;2022-09-09T07:01:17;17.27;;;6.15;;
19205;SDS011;59358;52.134;5.596;2022-09-09T07:03:47;8.13;;;4.40;;
19205;SDS011;59358;52.134;5.596;2022-09-09T07:06:16;11.05;;;4.72;;
19205;SDS011;59358;52.134;5.596;2022-09-09T07:08:44;9.13;;;4.60;;
19205;SDS011;59358;52.134;5.596;2022-09-09T07:11:14;12.77;;;4.70;;
19205;SDS011;59358;52.134;5.596;2022-09-09T07:13:41;12.30;;;4.78;;
19205;SDS011;59358;52.134;5.596;2022-09-09T07:16:09;9.02;;;5.18;;
19205;SDS011;59358;52.134;5.596;2022-09-09T07:18:37;15.07;;;4.50;;
19205;SDS011;59358;52.134;5.596;2022-09-09T07:21:06;12.88;;;4.53;;
19205;SDS011;59358;52.134;5.596;2022-09-09T07:23:34;14.02;;;4.68;;
19205;SDS011;59358;52.134;5.596;2022-09-09T07:26:01;10.43;;;4.32;;
19205;SDS011;59358;52.134;5.596;2022-09-09T07:28:28;8.25;;;3.75;;
19205;SDS011;59358;52.134;5.596;2022-09-09T07:30:56;9.80;;;4.05;;
19205;SDS011;59358;52.134;5.596;2022-09-09T07:33:24;10.38;;;4.38;;
19205;SDS011;59358;52.134;5.596;2022-09-09T07:35:52;11.57;;;4.07;;
19205;SDS011;59358;52.134;5.596;2022-09-09T07:38:21;9.95;;;3.88;;
19205;SDS011;59358;52.134;5.596;2022-09-09T07:40:48;12.82;;;3.90;;
19205;SDS011;59358;52.134;5.596;2022-09-09T07:43:15;5.97;;;3.90;;
19205;SDS011;59358;52.134;5.596;2022-09-09T07:45:42;8.32;;;3.67;;
19205;SDS011;59358;52.134;5.596;2022-09-09T07:48:09;11.95;;;3.40;;
19205;SDS011;59358;52.134;5.596;2022-09-09T07:50:36;14.07;;;4.00;;
19205;SDS011;59358;52.134;5.596;2022-09-09T07:53:04;12.75;;;4.22;;
19205;SDS011;59358;52.134;5.596;2022-09-09T07:55:32;9.65;;;3.88;;
19205;SDS011;59358;52.134;5.596;2022-09-09T07:57:59;9.57;;;3.80;;
19205;SDS011;59358;52.134;5.596;2022-09-09T08:00:26;5.40;;;3.05;;
19205;SDS011;59358;52.134;5.596;2022-09-09T08:02:53;8.38;;;3.33;;
19205;SDS011;59358;52.134;5.596;2022-09-09T08:05:20;11.55;;;3.33;;
19205;SDS011;59358;52.134;5.596;2022-09-09T08:07:48;8.85;;;3.95;;
19205;SDS011;59358;52.134;5.596;2022-09-09T08:10:15;13.73;;;3.80;;
19205;SDS011;59358;52.134;5.596;2022-09-09T08:12:44;10.02;;;3.88;;
19205;SDS011;59358;52.134;5.596;2022-09-09T08:15:12;15.55;;;4.53;;
19205;SDS011;59358;52.134;5.596;2022-09-09T08:17:39;11.45;;;3.47;;
19205;SDS011;59358;52.134;5.596;2022-09-09T08:20:06;9.10;;;2.97;;
19205;SDS011;59358;52.134;5.596;2022-09-09T08:22:33;11.13;;;3.33;;
19205;SDS011;59358;52.134;5.596;2022-09-09T08:25:02;10.02;;;2.90;;
19205;SDS011;59358;52.134;5.596;2022-09-09T08:27:31;11.63;;;3.35;;
19205;SDS011;59358;52.134;5.596;2022-09-09T08:29:59;10.75;;;2.95;;
19205;SDS011;59358;52.134;5.596;2022-09-09T08:32:26;7.82;;;3.00;;
19205;SDS011;59358;52.134;5.596;2022-09-09T08:34:53;6.55;;;3.65;;
19205;SDS011;59358;52.134;5.596;2022-09-09T08:37:20;9.75;;;3.03;;
19205;SDS011;59358;52.134;5.596;2022-09-09T08:39:46;9.50;;;2.75;;
19205;SDS011;59358;52.134;5.596;2022-09-09T08:45:12;6.13;;;2.72;;
19205;SDS011;59358;52.134;5.596;2022-09-09T08:47:50;12.38;;;3.78;;
19205;SDS011;59358;52.134;5.596;2022-09-09T08:50:24;11.77;;;3.42;;
19205;SDS011;59358;52.134;5.596;2022-09-09T08:52:55;11.00;;;2.92;;
19205;SDS011;59358;52.134;5.596;2022-09-09T08:55:29;12.23;;;3.35;;
19205;SDS011;59358;52.134;5.596;2022-09-09T08:58:06;8.65;;;2.60;;
19205;SDS011;59358;52.134;5.596;2022-09-09T09:00:42;11.10;;;2.60;;
19205;SDS011;59358;52.134;5.596;2022-09-09T09:03:22;8.88;;;2.47;;
19205;SDS011;59358;52.134;5.596;2022-09-09T09:05:59;8.00;;;2.72;;
19205;SDS011;59358;52.134;5.596;2022-09-09T09:08:35;13.13;;;3.20;;
19205;SDS011;59358;52.134;5.596;2022-09-09T09:11:10;12.40;;;2.92;;
19205;SDS011;59358;52.134;5.596;2022-09-09T09:13:38;11.50;;;2.92;;
19205;SDS011;59358;52.134;5.596;2022-09-09T09:16:12;9.30;;;2.63;;
19205;SDS011;59358;52.134;5.596;2022-09-09T09:18:45;6.90;;;2.78;;
19205;SDS011;59358;52.134;5.596;2022-09-09T09:21:13;14.70;;;3.38;;
19205;SDS011;59358;52.134;5.596;2022-09-09T09:23:45;9.23;;;3.13;;
19205;SDS011;59358;52.134;5.596;2022-09-09T09:26:23;10.02;;;3.22;;
19205;SDS011;59358;52.134;5.596;2022-09-09T09:28:53;8.55;;;3.13;;
19205;SDS011;59358;52.134;5.596;2022-09-09T09:31:24;9.57;;;2.95;;
19205;SDS011;59358;52.134;5.596;2022-09-09T09:33:52;11.88;;;2.80;;
19205;SDS011;59358;52.134;5.596;2022-09-09T09:36:21;6.72;;;2.50;;
19205;SDS011;59358;52.134;5.596;2022-09-09T09:38:52;12.55;;;2.83;;
19205;SDS011;59358;52.134;5.596;2022-09-09T09:41:30;8.80;;;3.00;;
19205;SDS011;59358;52.134;5.596;2022-09-09T09:43:59;10.95;;;3.33;;
19205;SDS011;59358;52.134;5.596;2022-09-09T09:46:29;6.65;;;2.10;;
19205;SDS011;59358;52.134;5.596;2022-09-09T09:48:56;9.75;;;2.55;;
19205;SDS011;59358;52.134;5.596;2022-09-09T09:51:24;7.97;;;2.55;;
19205;SDS011;59358;52.134;5.596;2022-09-09T09:53:52;9.73;;;2.42;;
19205;SDS011;59358;52.134;5.596;2022-09-09T09:56:26;8.38;;;2.45;;
19205;SDS011;59358;52.134;5.596;2022-09-09T09:58:54;7.00;;;2.42;;
19205;SDS011;59358;52.134;5.596;2022-09-09T10:01:22;13.05;;;2.65;;
19205;SDS011;59358;52.134;5.596;2022-09-09T10:03:53;8.23;;;2.47;;
19205;SDS011;59358;52.134;5.596;2022-09-09T10:06:29;9.00;;;2.75;;
19205;SDS011;59358;52.134;5.596;2022-09-09T10:08:58;6.45;;;2.80;;
19205;SDS011;59358;52.134;5.596;2022-09-09T10:11:29;7.15;;;2.33;;
19205;SDS011;59358;52.134;5.596;2022-09-09T10:14:11;7.70;;;2.65;;
19205;SDS011;59358;52.134;5.596;2022-09-09T10:16:50;6.38;;;2.63;;
19205;SDS011;59358;52.134;5.596;2022-09-09T10:19:31;5.82;;;2.65;;
19205;SDS011;59358;52.134;5.596;2022-09-09T10:22:02;9.35;;;3.25;;
19205;SDS011;59358;52.134;5.596;2022-09-09T10:24:51;6.38;;;2.63;;
19205;SDS011;59358;52.134;5.596;2022-09-09T10:27:29;11.07;;;2.78;;
19205;SDS011;59358;52.134;5.596;2022-09-09T10:30:04;11.98;;;3.40;;
19205;SDS011;59358;52.134;5.596;2022-09-09T10:32:47;14.07;;;2.92;;
19205;SDS011;59358;52.134;5.596;2022-09-09T10:35:31;11.50;;;3.65;;
19205;SDS011;59358;52.134;5.596;2022-09-09T10:38:12;8.80;;;2.58;;
19205;SDS011;59358;52.134;5.596;2022-09-09T10:40:46;8.48;;;2.92;;
19205;SDS011;59358;52.134;5.596;2022-09-09T10:43:33;6.32;;;2.45;;
19205;SDS011;59358;52.134;5.596;2022-09-09T10:46:24;11.18;;;2.65;;
19205;SDS011;59358;52.134;5.596;2022-09-09T10:49:05;10.43;;;2.80;;
19205;SDS011;59358;52.134;5.596;2022-09-09T10:51:45;12.68;;;3.70;;
19205;SDS011;59358;52.134;5.596;2022-09-09T10:54:24;7.28;;;3.05;;
19205;SDS011;59358;52.134;5.596;2022-09-09T10:57:08;5.85;;;3.10;;
19205;SDS011;59358;52.134;5.596;2022-09-09T10:59:40;10.35;;;3.63;;
19205;SDS011;59358;52.134;5.596;2022-09-09T11:02:13;8.27;;;3.80;;
19205;SDS011;59358;52.134;5.596;2022-09-09T11:04:46;11.93;;;4.63;;
19205;SDS011;59358;52.134;5.596;2022-09-09T11:07:21;10.80;;;3.70;;
19205;SDS011;59358;52.134;5.596;2022-09-09T11:09:55;7.80;;;3.70;;
19205;SDS011;59358;52.134;5.596;2022-09-09T11:12:28;11.38;;;4.40;;
19205;SDS011;59358;52.134;5.596;2022-09-09T11:14:58;9.93;;;3.78;;
19205;SDS011;59358;52.134;5.596;2022-09-09T11:17:32;7.50;;;3.78;;
19205;SDS011;59358;52.134;5.596;2022-09-09T11:20:04;9.68;;;3.83;;
19205;SDS011;59358;52.134;5.596;2022-09-09T11:22:34;9.20;;;3.78;;
19205;SDS011;59358;52.134;5.596;2022-09-09T11:25:06;9.48;;;4.70;;
19205;SDS011;59358;52.134;5.596;2022-09-09T11:27:42;8.50;;;4.43;;
19205;SDS011;59358;52.134;5.596;2022-09-09T11:30:20;8.20;;;3.47;;
19205;SDS011;59358;52.134;5.596;2022-09-09T11:32:56;11.75;;;3.90;;
19205;SDS011;59358;52.134;5.596;2022-09-09T11:35:55;10.85;;;4.40;;
19205;SDS011;59358;52.134;5.596;2022-09-09T11:38:39;9.88;;;3.78;;
19205;SDS011;59358;52.134;5.596;2022-09-09T11:41:11;11.30;;;3.75;;
19205;SDS011;59358;52.134;5.596;2022-09-09T11:43:40;9.20;;;3.70;;
19205;SDS011;59358;52.134;5.596;2022-09-09T11:46:07;10.60;;;3.85;;
19205;SDS011;59358;52.134;5.596;2022-09-09T11:48:36;9.68;;;3.33;;
19205;SDS011;59358;52.134;5.596;2022-09-09T11:51:05;6.03;;;2.88;;
19205;SDS011;59358;52.134;5.596;2022-09-09T11:53:35;12.73;;;3.67;;
19205;SDS011;59358;52.134;5.596;2022-09-09T11:56:13;10.65;;;3.80;;
19205;SDS011;59358;52.134;5.596;2022-09-09T11:58:55;12.00;;;3.78;;
19205;SDS011;59358;52.134;5.596;2022-09-09T12:01:37;7.72;;;3.22;;
19205;SDS011;59358;52.134;5.596;2022-09-09T12:06:59;11.32;;;3.30;;
19205;SDS011;59358;52.134;5.596;2022-09-09T12:09:31;6.72;;;3.17;;
19205;SDS011;59358;52.134;5.596;2022-09-09T12:12:05;11.60;;;3.33;;
19205;SDS011;59358;52.134;5.596;2022-09-09T12:14:35;9.63;;;3.38;;
19205;SDS011;59358;52.134;5.596;2022-09-09T12:17:17;6.43;;;2.92;;
19205;SDS011;59358;52.134;5.596;2022-09-09T12:19:45;10.93;;;3.08;;
19205;SDS011;59358;52.134;5.596;2022-09-09T12:22:15;8.73;;;3.00;;
19205;SDS011;59358;52.134;5.596;2022-09-09T12:24:51;7.78;;;2.85;;
19205;SDS011;59358;52.134;5.596;2022-09-09T12:27:31;6.45;;;2.60;;
19205;SDS011;59358;52.134;5.596;2022-09-09T12:30:03;7.25;;;3.05;;
19205;SDS011;59358;52.134;5.596;2022-09-09T12:32:34;6.40;;;3.05;;
19205;SDS011;59358;52.134;5.596;2022-09-09T12:35:03;8.48;;;3.30;;
19205;SDS011;59358;52.134;5.596;2022-09-09T12:37:37;7.15;;;3.72;;
19205;SDS011;59358;52.134;5.596;2022-09-09T12:40:14;9.48;;;3.33;;
19205;SDS011;59358;52.134;5.596;2022-09-09T12:42:46;8.52;;;3.70;;
19205;SDS011;59358;52.134;5.596;2022-09-09T12:45:17;7.57;;;4.38;;
19205;SDS011;59358;52.134;5.596;2022-09-09T12:47:46;10.02;;;4.32;;
19205;SDS011;59358;52.134;5.596;2022-09-09T12:50:17;7.22;;;3.85;;
19205;SDS011;59358;52.134;5.596;2022-09-09T12:52:47;7.93;;;4.15;;
19205;SDS011;59358;52.134;5.596;2022-09-09T12:55:19;7.97;;;3.53;;
19205;SDS011;59358;52.134;5.596;2022-09-09T12:57:50;7.43;;;3.55;;
19205;SDS011;59358;52.134;5.596;2022-09-09T13:00:19;13.82;;;4.10;;
19205;SDS011;59358;52.134;5.596;2022-09-09T13:02:49;9.55;;;3.97;;
19205;SDS011;59358;52.134;5.596;2022-09-09T13:05:19;8.75;;;3.40;;
19205;SDS011;59358;52.134;5.596;2022-09-09T13:07:47;6.28;;;3.03;;
19205;SDS011;59358;52.134;5.596;2022-09-09T13:10:15;5.93;;;3.15;;
19205;SDS011;59358;52.134;5.596;2022-09-09T13:12:51;8.98;;;3.65;;
19205;SDS011;59358;52.134;5.596;2022-09-09T13:15:20;6.10;;;3.33;;
19205;SDS011;59358;52.134;5.596;2022-09-09T13:17:51;6.10;;;2.78;;
19205;SDS011;59358;52.134;5.596;2022-09-09T13:20:20;3.72;;;2.40;;
19205;SDS011;59358;52.134;5.596;2022-09-09T13:22:49;6.80;;;2.90;;
19205;SDS011;59358;52.134;5.596;2022-09-09T13:25:19;6.07;;;2.95;;
19205;SDS011;59358;52.134;5.596;2022-09-09T13:27:54;10.13;;;3.22;;
19205;SDS011;59358;52.134;5.596;2022-09-09T13:30:23;7.68;;;3.40;;
19205;SDS011;59358;52.134;5.596;2022-09-09T13:33:06;8.32;;;2.90;;
19205;SDS011;59358;52.134;5.596;2022-09-09T13:35:47;5.53;;;3.30;;
19205;SDS011;59358;52.134;5.596;2022-09-09T13:38:16;8.98;;;3.38;;
19205;SDS011;59358;52.134;5.596;2022-09-09T13:40:57;4.78;;;2.75;;
19205;SDS011;59358;52.134;5.596;2022-09-09T13:43:29;8.65;;;3.05;;
19205;SDS011;59358;52.134;5.596;2022-09-09T13:45:58;4.93;;;3.05;;
19205;SDS011;59358;52.134;5.596;2022-09-09T13:48:27;8.38;;;3.17;;
19205;SDS011;59358;52.134;5.596;2022-09-09T13:50:57;4.95;;;2.67;;
19205;SDS011;59358;52.134;5.596;2022-09-09T13:53:26;6.05;;;3.10;;
19205;SDS011;59358;52.134;5.596;2022-09-09T13:55:53;5.82;;;3.08;;
19205;SDS011;59358;52.134;5.596;2022-09-09T13:58:23;4.40;;;2.85;;
19205;SDS011;59358;52.134;5.596;2022-09-09T14:00:51;6.57;;;2.85;;
19205;SDS011;59358;52.134;5.596;2022-09-09T14:03:18;7.93;;;2.85;;
19205;SDS011;59358;52.134;5.596;2022-09-09T14:05:46;4.28;;;2.67;;
19205;SDS011;59358;52.134;5.596;2022-09-09T14:08:15;8.73;;;3.10;;
19205;SDS011;59358;52.134;5.596;2022-09-09T14:10:47;7.80;;;2.97;;
19205;SDS011;59358;52.134;5.596;2022-09-09T14:13:14;7.22;;;2.95;;
19205;SDS011;59358;52.134;5.596;2022-09-09T14:15:42;6.97;;;3.55;;
19205;SDS011;59358;52.134;5.596;2022-09-09T14:18:10;7.38;;;2.80;;
19205;SDS011;59358;52.134;5.596;2022-09-09T14:20:39;7.55;;;2.60;;
19205;SDS011;59358;52.134;5.596;2022-09-09T14:23:07;6.10;;;2.53;;
19205;SDS011;59358;52.134;5.596;2022-09-09T14:25:36;8.25;;;3.05;;
19205;SDS011;59358;52.134;5.596;2022-09-09T14:28:07;5.10;;;2.53;;
19205;SDS011;59358;52.134;5.596;2022-09-09T14:30:36;10.20;;;2.78;;
19205;SDS011;59358;52.134;5.596;2022-09-09T14:33:05;7.15;;;2.83;;
19205;SDS011;59358;52.134;5.596;2022-09-09T14:35:32;5.18;;;2.13;;
19205;SDS011;59358;52.134;5.596;2022-09-09T14:37:59;6.20;;;2.40;;
19205;SDS011;59358;52.134;5.596;2022-09-09T14:40:27;6.70;;;2.30;;
19205;SDS011;59358;52.134;5.596;2022-09-09T14:42:54;9.10;;;2.90;;
19205;SDS011;59358;52.134;5.596;2022-09-09T14:45:21;5.55;;;2.58;;
19205;SDS011;59358;52.134;5.596;2022-09-09T14:47:49;8.77;;;2.50;;
19205;SDS011;59358;52.134;5.596;2022-09-09T14:50:18;5.38;;;2.42;;
19205;SDS011;59358;52.134;5.596;2022-09-09T14:52:45;5.70;;;2.50;;
19205;SDS011;59358;52.134;5.596;2022-09-09T14:55:12;5.25;;;2.45;;
19205;SDS011;59358;52.134;5.596;2022-09-09T14:57:40;6.95;;;2.72;;
19205;SDS011;59358;52.134;5.596;2022-09-09T15:00:07;4.75;;;2.17;;
19205;SDS011;59358;52.134;5.596;2022-09-09T15:02:35;7.30;;;2.38;;
19205;SDS011;59358;52.134;5.596;2022-09-09T15:05:03;5.93;;;2.50;;